Latest Weather Observations for Jimna

IDQ60801

Issued at 1:02 am EST Sunday 14 February 2016 (issued every 30 minutes, with the page automatically refreshed every 10 minutes)

About weather observations | Map of weather stations | Latest weather observations for QLD | Other Formats
Station Details ID: 040651 Name: JIMNA FORESTRY Lat: -26.66 Lon: 152.46 Height: 523.0 m
Data from the previous 72 hours. | See also: Recent months at Jimna
Date/Time
EST
Temp
°C
App
Temp
°C
Dew
Point
Rel
Hum
%
Delta-T
°C
Wind Press
QNH
hPa
Press
MSL
hPa
Rain
since 9 am
mm
Dir
 
Spd
km/h
Gust
km/h
Spd
kts
Gust
kts
14/01:00am 17.7 - 15.0 84 1.6 - - - - - - - 0.0
14/12:30am 18.1 - 15.0 82 1.8 - - - - - - - 0.0
14/12:00am 18.3 - 15.0 81 2.0 - - - - - - - 0.0
 
Date/Time
EST
Temp
°C
App
Temp
°C
Dew
Point
Rel
Hum
%
Delta-T
°C
Wind Press
QNH
hPa
Press
MSL
hPa
Rain
since 9 am
mm
Dir
 
Spd
km/h
Gust
km/h
Spd
kts
Gust
kts
13/11:30pm 18.4 - 14.9 80 2.1 - - - - - - - 0.0
13/11:00pm 18.6 - 15.8 84 1.7 - - - - - - - 0.0
13/10:30pm 18.9 - 15.9 83 1.8 - - - - - - - 0.0
13/10:00pm 19.3 - 16.2 82 1.9 - - - - - - - 0.0
13/09:30pm 19.6 - 16.3 81 2.0 - - - - - - - 0.0
13/09:00pm 20.0 - 16.4 80 2.2 - - - - - - - 0.0
13/08:30pm 20.1 - 16.5 80 2.2 - - - - - - - 0.0
13/08:00pm 20.0 - 16.8 82 2.0 - - - - - - - 0.0
13/07:30pm 19.9 - 16.7 82 2.0 - - - - - - - 0.0
13/07:00pm 20.3 - 16.7 80 2.2 - - - - - - - 0.0
13/06:30pm 20.5 - 16.5 78 2.5 - - - - - - - 0.0
13/06:00pm 20.8 - 16.4 76 2.7 - - - - - - - 0.0
13/05:30pm 21.1 - 16.7 76 2.7 - - - - - - - 0.0
13/05:00pm 21.5 - 17.3 77 2.6 - - - - - - - 0.0
13/04:30pm 22.6 - 17.3 72 3.3 - - - - - - - 0.0
13/04:00pm 22.6 - 17.7 74 3.1 - - - - - - - 0.0
13/03:30pm 22.3 - 17.0 72 3.3 - - - - - - - 0.0
13/03:00pm 21.0 - 17.2 79 2.4 - - - - - - - 0.0
13/02:30pm 21.3 - 17.1 77 2.6 - - - - - - - 0.0
13/02:00pm 21.2 - 17.6 80 2.3 - - - - - - - 0.0
13/01:30pm 22.0 - 16.9 73 3.2 - - - - - - - 0.0
13/01:00pm 23.3 - 17.1 68 3.9 - - - - - - - 0.0
13/12:30pm 21.8 - 17.0 74 3.0 - - - - - - - 0.0
13/12:00pm 23.5 - 17.5 69 3.8 - - - - - - - 0.0
13/11:30am 24.3 - 16.8 63 4.7 - - - - - - - 0.0
13/11:00am 23.7 - 16.0 62 4.8 - - - - - - - 0.0
13/10:30am 23.5 - 18.4 73 3.3 - - - - - - - 0.0
13/10:00am 23.2 - 16.3 65 4.3 - - - - - - - 0.0
13/09:30am 22.2 - 16.9 72 3.3 - - - - - - - 0.0
13/09:00am 21.3 - 15.4 69 3.6 - - - - - - - 0.0
13/08:30am 19.3 - 16.2 82 1.9 - - - - - - - 0.0
13/08:00am 18.5 - 15.7 84 1.7 - - - - - - - 0.0
13/07:30am 17.9 - 15.0 83 1.7 - - - - - - - 0.0
13/07:00am 18.4 - 15.5 83 1.7 - - - - - - - 0.0
13/06:30am 18.6 - 15.7 83 1.8 - - - - - - - 0.0
13/06:00am 18.5 - 15.6 83 1.8 - - - - - - - 0.0
13/05:30am 18.5 - 15.7 84 1.7 - - - - - - - 0.0
13/05:00am 18.4 - 15.6 84 1.7 - - - - - - - 0.0
13/04:30am 18.3 - 15.6 84 1.6 - - - - - - - 0.0
13/04:00am 18.2 - 15.5 84 1.6 - - - - - - - 0.0
13/03:30am 18.1 - 15.4 84 1.6 - - - - - - - 0.0
13/03:00am 18.1 - 15.5 85 1.6 - - - - - - - 0.0
13/02:30am 18.2 - 15.5 84 1.6 - - - - - - - 0.0
13/02:00am 18.3 - 15.6 84 1.6 - - - - - - - 0.0
13/01:30am 18.3 - 15.4 83 1.7 - - - - - - - 0.0
13/01:00am 18.5 - 15.6 83 1.8 - - - - - - - 0.0
13/12:30am 18.5 - 15.4 82 1.9 - - - - - - - 0.0
13/12:00am 18.5 - 15.2 81 2.0 - - - - - - - 0.0
 
Date/Time
EST
Temp
°C
App
Temp
°C
Dew
Point
Rel
Hum
%
Delta-T
°C
Wind Press
QNH
hPa
Press
MSL
hPa
Rain
since 9 am
mm
Dir
 
Spd
km/h
Gust
km/h
Spd
kts
Gust
kts
12/11:30pm 18.7 - 15.4 81 2.0 - - - - - - - 0.0
12/11:00pm 18.7 - 15.4 81 2.0 - - - - - - - 0.0
12/10:30pm 18.6 - 14.9 79 2.2 - - - - - - - 0.0
12/10:00pm 18.6 - 14.3 76 2.5 - - - - - - - 0.0
12/09:30pm 18.9 - 14.2 74 2.8 - - - - - - - 0.0
12/09:00pm 19.2 - 14.2 73 3.0 - - - - - - - 0.0
12/08:30pm 19.2 - 14.2 73 3.0 - - - - - - - 0.0
12/08:00pm 19.6 - 14.2 71 3.2 - - - - - - - 0.0
12/07:30pm 20.0 - 14.4 70 3.3 - - - - - - - 0.0
12/07:00pm 20.5 - 14.4 68 3.6 - - - - - - - 0.0
12/06:30pm 21.2 - 15.3 69 3.6 - - - - - - - 0.0
12/06:00pm 21.6 - 15.2 67 3.9 - - - - - - - 0.0
12/05:30pm 22.3 - 15.2 64 4.3 - - - - - - - 0.0
12/05:00pm 23.2 - 15.3 61 4.8 - - - - - - - 0.0
12/04:30pm 24.1 - 15.3 58 5.4 - - - - - - - 0.0
12/04:00pm 24.7 - 15.3 56 5.8 - - - - - - - 0.0
12/03:30pm 25.4 - 14.8 52 6.5 - - - - - - - 0.0
12/03:00pm 26.1 - 15.2 51 6.7 - - - - - - - 0.0
12/02:30pm 26.1 - 15.2 51 6.7 - - - - - - - 0.0
12/02:00pm 25.9 - 14.7 50 6.9 - - - - - - - 0.0
12/01:30pm 25.7 - 14.2 49 7.0 - - - - - - - 0.0
12/01:00pm 26.5 - 16.1 52 6.5 - - - - - - - 0.0
12/12:30pm 26.1 - 15.5 52 6.6 - - - - - - - 0.0
12/12:00pm 25.6 - 16.7 58 5.6 - - - - - - - 0.0
12/11:30am 24.8 - 14.9 54 6.1 - - - - - - - 0.0
12/11:00am 24.0 - 14.7 56 5.7 - - - - - - - 0.0
12/10:30am 24.0 - 15.2 58 5.4 - - - - - - - 0.0
12/10:00am 23.9 - 17.9 69 3.8 - - - - - - - 0.0
12/09:30am 21.5 - 15.3 68 3.8 - - - - - - - 0.0
12/09:00am 21.6 - 16.1 71 3.4 - - - - - - - 0.0
12/08:30am 21.0 - 16.2 74 3.0 - - - - - - - 0.0
12/08:00am 20.6 - 16.2 76 2.7 - - - - - - - 0.0
12/07:30am 20.0 - 16.8 82 2.0 - - - - - - - 0.0
12/07:00am 19.5 - 16.3 82 2.0 - - - - - - - 0.0
12/06:30am 18.4 - 16.2 87 1.3 - - - - - - - 0.0
12/06:00am 18.4 - 16.4 88 1.2 - - - - - - - 0.0
12/05:30am 18.1 - 16.4 90 1.0 - - - - - - - 0.0
12/05:00am 17.8 - 16.0 89 1.1 - - - - - - - 0.0
12/04:30am 18.0 - 16.0 88 1.2 - - - - - - - 0.0
12/04:00am 17.7 - 15.9 89 1.1 - - - - - - - 0.0
12/03:30am 17.4 - 16.4 94 0.6 - - - - - - - 0.0
12/03:00am 17.1 - 15.4 90 1.0 - - - - - - - 0.0
12/02:30am 17.3 - 15.5 89 1.1 - - - - - - - 0.0
12/02:00am 17.5 - 15.7 89 1.1 - - - - - - - 0.0
12/01:30am 17.8 - 16.1 90 1.0 - - - - - - - 0.0
12/01:00am 17.5 - 15.7 89 1.1 - - - - - - - 0.0
12/12:30am 17.3 - 15.5 89 1.1 - - - - - - - 0.0
12/12:00am 17.3 - 15.1 87 1.3 - - - - - - - 0.0
 
Date/Time
EST
Temp
°C
App
Temp
°C
Dew
Point
Rel
Hum
%
Delta-T
°C
Wind Press
QNH
hPa
Press
MSL
hPa
Rain
since 9 am
mm
Dir
 
Spd
km/h
Gust
km/h
Spd
kts
Gust
kts
11/11:30pm 17.6 - 15.0 85 1.5 - - - - - - - 0.0
11/11:00pm 18.4 - 15.8 85 1.6 - - - - - - - 0.0
11/10:30pm 18.3 - 15.4 83 1.7 - - - - - - - 0.0
11/10:00pm 18.9 - 15.8 82 1.9 - - - - - - - 0.0
11/09:30pm 19.1 - 15.4 79 2.2 - - - - - - - 0.0
11/09:00pm 19.8 - 15.9 78 2.4 - - - - - - - 0.0
11/08:30pm 19.6 - 15.7 78 2.4 - - - - - - - 0.0
11/08:00pm 19.9 - 16.0 78 2.4 - - - - - - - 0.0
11/07:30pm 20.3 - 15.7 75 2.8 - - - - - - - 0.0
11/07:00pm 20.8 - 15.8 73 3.1 - - - - - - - 0.0
11/06:30pm 21.3 - 15.8 71 3.4 - - - - - - - 0.0
11/06:00pm 21.8 - 15.9 69 3.6 - - - - - - - 0.0
11/05:30pm 22.5 - 15.4 64 4.3 - - - - - - - 0.0
11/05:00pm 23.0 - 15.3 62 4.7 - - - - - - - 0.0
11/04:30pm 23.1 - 16.2 65 4.3 - - - - - - - 0.0
11/04:00pm 23.4 - 16.7 66 4.2 - - - - - - - 0.0
11/03:30pm 24.6 - 16.3 60 5.2 - - - - - - - 0.0
11/03:00pm 26.6 - 14.7 48 7.3 - - - - - - - 0.0
11/02:30pm 26.9 - 13.3 43 8.2 - - - - - - - 0.0
11/02:00pm 26.4 - 15.8 52 6.6 - - - - - - - 0.0
11/01:30pm 26.2 - 15.6 52 6.6 - - - - - - - 0.0
11/01:00pm 25.0 - 14.5 52 6.4 - - - - - - - 0.0
11/12:30pm 26.1 - 16.1 54 6.3 - - - - - - - 0.0
11/12:00pm 26.0 - 16.3 55 6.1 - - - - - - - 0.0
11/11:30am 25.8 - 15.2 52 6.5 - - - - - - - 0.0
11/11:00am 24.2 - 15.7 59 5.3 - - - - - - - 0.0
11/10:30am 24.5 - 16.0 59 5.3 - - - - - - - 0.0
11/10:00am 23.9 - 15.9 61 5.0 - - - - - - - 0.0
11/09:30am 22.6 - 14.7 61 4.8 - - - - - - - 0.0
11/09:00am 22.5 - 15.8 66 4.1 - - - - - - - 0.0
11/08:30am 22.2 - 16.5 70 3.5 - - - - - - - 0.0
11/08:00am 21.2 - 16.2 73 3.1 - - - - - - - 0.0
11/07:30am 20.8 - 16.0 74 2.9 - - - - - - - 0.0
11/07:00am 19.6 - 15.7 78 2.4 - - - - - - - 0.0
11/06:30am 18.4 - 15.8 85 1.6 - - - - - - - 0.0
11/06:00am 17.9 - 15.3 85 1.6 - - - - - - - 0.0
11/05:30am 18.1 - 15.7 86 1.4 - - - - - - - 0.0
11/05:00am 17.8 - 15.8 88 1.2 - - - - - - - 0.0
11/04:30am 17.8 - 15.4 86 1.4 - - - - - - - 0.0
11/04:00am 17.9 - 15.3 85 1.6 - - - - - - - 0.0
11/03:30am 18.1 - 15.7 86 1.4 - - - - - - - 0.0
11/03:00am 17.7 - 15.5 87 1.3 - - - - - - - 0.0
11/02:30am 17.9 - 15.7 87 1.3 - - - - - - - 0.0
11/02:00am 18.1 - 15.9 87 1.3 - - - - - - - 0.0
11/01:30am 18.0 - 15.4 85 1.6 - - - - - - - 0.0

Other Formats:

Comma delimited format used in spreadsheet applications
http://www.bom.gov.au/fwo/IDQ60801/IDQ60801.94557.axf

JavaScript Object Notation format (JSON) in row-major order
http://www.bom.gov.au/fwo/IDQ60801/IDQ60801.94557.json